Time;durP1;ratioP1;P1;durP2;ratioP2;P2;SDS_P1;SDS_P2;PMS_P1;PMS_P2;Temp;Humidity;BMP_temperature;BMP_pressure;BME280_temperature;BME280_humidity;BME280_pressure;Samples;Min_cycle;Max_cycle;Signal;HPM_P1;HPM_P2
2022/10/26 00:00:43;;;;;;;12.60;7.93;;;;;;;;;;2373374;56;21130;-73
2022/10/26 00:03:10;;;;;;;15.57;7.57;;;;;;;;;;2372471;56;21588;-74
2022/10/26 00:05:37;;;;;;;12.00;7.62;;;;;;;;;;2372819;56;21028;-76
2022/10/26 00:08:05;;;;;;;21.42;7.60;;;;;;;;;;2626528;52;22643;-75
2022/10/26 00:10:34;;;;;;;13.25;8.57;;;;;;;;;;2372564;56;21023;-75
2022/10/26 00:13:01;;;;;;;14.68;8.13;;;;;;;;;;2373344;56;21058;-75
2022/10/26 00:15:28;;;;;;;18.67;8.05;;;;;;;;;;2374162;56;21046;-73
2022/10/26 00:17:56;;;;;;;15.32;7.95;;;;;;;;;;2406187;52;21046;-75
2022/10/26 00:20:23;;;;;;;17.42;8.68;;;;;;;;;;2372582;56;21635;-75
2022/10/26 00:22:50;;;;;;;13.07;7.18;;;;;;;;;;2371571;56;21572;-73
2022/10/26 00:25:17;;;;;;;12.13;7.25;;;;;;;;;;2373354;56;21161;-75
2022/10/26 00:27:44;;;;;;;12.40;7.62;;;;;;;;;;2373911;56;21647;-73
2022/10/26 00:30:11;;;;;;;10.45;6.60;;;;;;;;;;2373587;56;21676;-73
2022/10/26 00:32:38;;;;;;;9.38;6.72;;;;;;;;;;2373396;56;21561;-75
2022/10/26 00:35:05;;;;;;;21.12;7.50;;;;;;;;;;2372720;56;22084;-75
2022/10/26 00:37:32;;;;;;;12.43;7.90;;;;;;;;;;2371424;56;21127;-75
2022/10/26 00:39:59;;;;;;;13.40;7.78;;;;;;;;;;2373069;56;21126;-75
2022/10/26 00:42:26;;;;;;;12.60;7.90;;;;;;;;;;2373508;56;21090;-75
2022/10/26 00:44:58;;;;;;;12.30;8.32;;;;;;;;;;2373640;56;21043;-74
2022/10/26 00:47:28;;;;;;;12.52;7.37;;;;;;;;;;2564681;52;21537;-75
2022/10/26 00:49:56;;;;;;;19.45;8.10;;;;;;;;;;2373411;56;21187;-75
2022/10/26 00:52:24;;;;;;;11.77;8.60;;;;;;;;;;2371970;56;21026;-75
2022/10/26 00:54:51;;;;;;;12.80;7.72;;;;;;;;;;2371646;56;21135;-73
2022/10/26 00:57:18;;;;;;;14.55;8.23;;;;;;;;;;2371639;56;21048;-75
2022/10/26 00:59:45;;;;;;;11.45;7.80;;;;;;;;;;2371778;56;21668;-73
2022/10/26 01:02:13;;;;;;;12.30;7.15;;;;;;;;;;2372506;56;21107;-75
2022/10/26 01:04:40;;;;;;;10.75;7.55;;;;;;;;;;2371527;56;21118;-75
2022/10/26 01:07:08;;;;;;;11.25;7.85;;;;;;;;;;2371557;56;21101;-75
2022/10/26 01:09:35;;;;;;;10.25;7.00;;;;;;;;;;2379386;52;21123;-75
2022/10/26 01:12:02;;;;;;;11.18;6.20;;;;;;;;;;2371420;56;21147;-75
2022/10/26 01:14:30;;;;;;;10.75;6.55;;;;;;;;;;2373086;56;21110;-75
2022/10/26 01:17:02;;;;;;;11.45;6.62;;;;;;;;;;2381786;52;21102;-73
2022/10/26 01:19:50;;;;;;;12.48;7.55;;;;;;;;;;2373639;56;21044;-75
2022/10/26 01:22:19;;;;;;;14.87;7.85;;;;;;;;;;2373322;56;21035;-75
2022/10/26 01:24:52;;;;;;;13.48;7.78;;;;;;;;;;2373597;56;21039;-75
2022/10/26 01:27:19;;;;;;;;;;;;;;;;;;2375384;56;21043;-75
2022/10/26 01:30:02;;;;;;;11.50;6.85;;;;;;;;;;2626610;52;20320;-75
2022/10/26 01:32:34;;;;;;;15.52;7.40;;;;;;;;;;2372270;56;21047;-75
2022/10/26 01:35:04;;;;;;;13.98;8.10;;;;;;;;;;2371917;56;21126;-73
2022/10/26 01:37:35;;;;;;;13.38;8.18;;;;;;;;;;2372129;56;21039;-73
2022/10/26 01:40:06;;;;;;;13.95;7.80;;;;;;;;;;2372736;56;21023;-75
2022/10/26 01:42:34;;;;;;;13.18;8.23;;;;;;;;;;2386245;52;21102;-75
2022/10/26 01:45:04;;;;;;;12.07;7.62;;;;;;;;;;2372223;56;21043;-74
2022/10/26 01:47:33;;;;;;;10.45;6.93;;;;;;;;;;2371764;56;21101;-75
2022/10/26 01:50:01;;;;;;;14.73;8.90;;;;;;;;;;2372422;56;21050;-75
2022/10/26 01:52:28;;;;;;;12.80;7.45;;;;;;;;;;2369895;56;21035;-75
2022/10/26 01:55:01;;;;;;;9.55;7.50;;;;;;;;;;2374150;56;21031;-75
2022/10/26 01:57:29;;;;;;;11.57;7.78;;;;;;;;;;2373690;56;21640;-75
2022/10/26 02:00:02;;;;;;;15.65;7.72;;;;;;;;;;2387007;52;21569;-75
2022/10/26 02:02:51;;;;;;;9.05;6.78;;;;;;;;;;2373181;56;21094;-75
2022/10/26 02:05:30;;;;;;;13.85;7.60;;;;;;;;;;2374270;56;21031;-75
2022/10/26 02:08:04;;;;;;;10.23;7.10;;;;;;;;;;2373596;56;21115;-75
2022/10/26 02:10:38;;;;;;;12.57;7.60;;;;;;;;;;2371614;56;21609;-75
2022/10/26 02:13:10;;;;;;;11.57;7.57;;;;;;;;;;2373163;56;21055;-75
2022/10/26 02:18:18;;;;;;;10.93;7.03;;;;;;;;;;2320624;57;22187;-73
2022/10/26 02:20:47;;;;;;;10.15;6.97;;;;;;;;;;2318978;58;21040;-75
2022/10/26 02:23:15;;;;;;;10.70;6.62;;;;;;;;;;2323575;54;21100;-76
2022/10/26 02:25:46;;;;;;;11.63;7.45;;;;;;;;;;2319688;58;21055;-76
2022/10/26 02:28:15;;;;;;;12.20;7.03;;;;;;;;;;2318536;58;21103;-76
2022/10/26 02:30:43;;;;;;;10.50;7.07;;;;;;;;;;2318798;58;21060;-76
2022/10/26 02:33:12;;;;;;;10.95;7.25;;;;;;;;;;2318559;58;22294;-75
2022/10/26 02:38:09;;;;;;;8.50;6.30;;;;;;;;;;2375628;56;21625;-81
2022/10/26 02:40:37;;;;;;;10.40;6.47;;;;;;;;;;2388458;56;21045;-80
2022/10/26 02:43:06;;;;;;;11.85;7.07;;;;;;;;;;2645788;52;21054;-81
2022/10/26 02:45:36;;;;;;;16.42;8.27;;;;;;;;;;2387558;56;21121;-81
2022/10/26 02:48:04;;;;;;;14.18;8.07;;;;;;;;;;2416707;55;21032;-80
2022/10/26 02:50:33;;;;;;;12.68;8.02;;;;;;;;;;2681616;51;21072;-80
2022/10/26 02:53:04;;;;;;;11.02;7.03;;;;;;;;;;2463573;50;74234;-76
2022/10/26 02:55:33;;;;;;;12.20;7.97;;;;;;;;;;2409412;55;21110;-75
2022/10/26 02:58:02;;;;;;;12.77;7.30;;;;;;;;;;2409132;55;21110;-75
2022/10/26 03:00:29;;;;;;;11.77;7.97;;;;;;;;;;2410735;55;21094;-75
2022/10/26 03:02:58;;;;;;;10.15;7.07;;;;;;;;;;2411334;55;21024;-75
2022/10/26 03:05:26;;;;;;;13.32;7.57;;;;;;;;;;2465180;51;21380;-75
2022/10/26 03:07:53;;;;;;;19.77;7.50;;;;;;;;;;2410906;55;21036;-75
2022/10/26 03:10:20;;;;;;;12.37;7.22;;;;;;;;;;2407857;55;21023;-75
2022/10/26 03:12:47;;;;;;;11.98;7.40;;;;;;;;;;2412064;55;21043;-75
2022/10/26 03:15:14;;;;;;;11.55;7.50;;;;;;;;;;2411923;55;21581;-76
2022/10/26 03:17:42;;;;;;;11.88;6.87;;;;;;;;;;2655957;51;21036;-75
2022/10/26 03:20:10;;;;;;;11.68;7.53;;;;;;;;;;2673028;51;21487;-75
2022/10/26 03:22:37;;;;;;;9.48;6.65;;;;;;;;;;2411177;55;21051;-75
2022/10/26 03:25:04;;;;;;;13.18;7.15;;;;;;;;;;2411630;55;21047;-75
2022/10/26 03:27:31;;;;;;;12.05;7.07;;;;;;;;;;2409226;55;21078;-75
2022/10/26 03:29:59;;;;;;;9.32;6.85;;;;;;;;;;2517265;51;21612;-75
2022/10/26 03:32:26;;;;;;;9.82;6.68;;;;;;;;;;2410305;55;21629;-73
2022/10/26 03:34:52;;;;;;;10.93;7.03;;;;;;;;;;2409363;55;21076;-75
2022/10/26 03:37:19;;;;;;;19.27;8.57;;;;;;;;;;2409626;55;21035;-75
2022/10/26 03:39:46;;;;;;;10.15;6.47;;;;;;;;;;2410991;55;21024;-75
2022/10/26 03:42:13;;;;;;;11.68;7.55;;;;;;;;;;2444249;51;21106;-75
2022/10/26 03:44:40;;;;;;;13.95;7.70;;;;;;;;;;2408176;55;21581;-75
2022/10/26 03:47:07;;;;;;;15.40;8.18;;;;;;;;;;2407884;55;21612;-75
2022/10/26 03:49:35;;;;;;;12.82;8.55;;;;;;;;;;2407477;55;21048;-76
2022/10/26 03:52:02;;;;;;;11.75;7.87;;;;;;;;;;2407151;55;21035;-76
2022/10/26 03:54:29;;;;;;;12.77;8.02;;;;;;;;;;2408896;55;21533;-75
2022/10/26 03:56:56;;;;;;;10.75;7.00;;;;;;;;;;2409800;55;21137;-76
2022/10/26 03:59:23;;;;;;;11.40;7.50;;;;;;;;;;2408896;55;21107;-76
2022/10/26 04:01:50;;;;;;;10.68;7.05;;;;;;;;;;2408426;55;22093;-76
2022/10/26 04:04:17;;;;;;;9.50;6.78;;;;;;;;;;2407662;55;21632;-76
2022/10/26 04:06:44;;;;;;;13.32;7.87;;;;;;;;;;2409128;55;21116;-75
2022/10/26 04:09:11;;;;;;;16.10;8.85;;;;;;;;;;2453067;51;21099;-75
2022/10/26 04:11:38;;;;;;;19.42;9.05;;;;;;;;;;2409491;55;21024;-75
2022/10/26 04:14:05;;;;;;;18.40;8.93;;;;;;;;;;2408349;55;21109;-75
2022/10/26 04:16:32;;;;;;;15.15;9.32;;;;;;;;;;2409154;55;21094;-75
2022/10/26 04:18:59;;;;;;;13.30;8.23;;;;;;;;;;2443880;51;21711;-73
2022/10/26 04:21:26;;;;;;;13.77;8.82;;;;;;;;;;2409908;55;21628;-73
2022/10/26 04:23:53;;;;;;;15.10;8.60;;;;;;;;;;2407986;55;21063;-75
2022/10/26 04:26:20;;;;;;;16.45;9.45;;;;;;;;;;2559325;51;21031;-75
2022/10/26 04:28:47;;;;;;;13.00;8.20;;;;;;;;;;2558339;51;21545;-75
2022/10/26 04:31:14;;;;;;;17.52;9.52;;;;;;;;;;2409613;55;21094;-75
2022/10/26 04:33:41;;;;;;;14.35;8.55;;;;;;;;;;2407252;55;21102;-75
2022/10/26 04:36:08;;;;;;;12.82;8.15;;;;;;;;;;2409084;55;21166;-75
2022/10/26 04:38:36;;;;;;;12.85;8.15;;;;;;;;;;2473783;51;21564;-75
2022/10/26 04:41:03;;;;;;;12.13;7.28;;;;;;;;;;2409233;55;21592;-75
2022/10/26 04:43:30;;;;;;;14.35;8.15;;;;;;;;;;2408515;55;21055;-75
2022/10/26 04:45:57;;;;;;;15.30;9.10;;;;;;;;;;2409593;55;21122;-75
2022/10/26 04:48:24;;;;;;;12.23;8.15;;;;;;;;;;2435044;51;21553;-75
2022/10/26 04:50:52;;;;;;;14.13;8.27;;;;;;;;;;2409835;55;21023;-75
2022/10/26 04:53:19;;;;;;;13.50;8.38;;;;;;;;;;2411044;55;21095;-75
2022/10/26 04:55:46;;;;;;;15.05;10.15;;;;;;;;;;2410192;55;21699;-75
2022/10/26 04:58:12;;;;;;;12.32;9.48;;;;;;;;;;2410361;55;21557;-75
2022/10/26 05:00:39;;;;;;;15.45;9.52;;;;;;;;;;2410283;55;21063;-75
2022/10/26 05:03:07;;;;;;;12.37;8.30;;;;;;;;;;2408952;55;21111;-75
2022/10/26 05:05:35;;;;;;;11.82;8.02;;;;;;;;;;2410000;55;21043;-75
2022/10/26 05:08:03;;;;;;;16.75;9.45;;;;;;;;;;2478450;51;22150;-75
2022/10/26 05:10:30;;;;;;;14.15;8.10;;;;;;;;;;2410430;55;21020;-75
2022/10/26 05:12:58;;;;;;;14.87;9.20;;;;;;;;;;2410672;55;21609;-75
2022/10/26 05:15:26;;;;;;;15.52;9.10;;;;;;;;;;2473975;51;21110;-75
2022/10/26 05:17:57;;;;;;;21.33;10.10;;;;;;;;;;2481773;51;21600;-75
2022/10/26 05:20:28;;;;;;;13.62;8.95;;;;;;;;;;2408244;55;21102;-75
2022/10/26 05:22:55;;;;;;;16.90;9.80;;;;;;;;;;2411179;55;21028;-75
2022/10/26 05:25:22;;;;;;;19.33;10.57;;;;;;;;;;2410084;55;21024;-75
2022/10/26 05:27:49;;;;;;;22.35;12.35;;;;;;;;;;2410726;55;21043;-76
2022/10/26 05:30:16;;;;;;;18.08;11.10;;;;;;;;;;2473394;51;21047;-75
2022/10/26 05:32:43;;;;;;;20.75;10.52;;;;;;;;;;2431868;51;21020;-73
2022/10/26 05:35:10;;;;;;;19.55;11.25;;;;;;;;;;2410473;55;21052;-75
2022/10/26 05:37:37;;;;;;;25.60;13.02;;;;;;;;;;2419356;51;21628;-75
2022/10/26 05:40:05;;;;;;;17.55;9.93;;;;;;;;;;2410530;55;21610;-75
2022/10/26 05:42:33;;;;;;;20.67;11.82;;;;;;;;;;2410102;55;21122;-75
2022/10/26 05:45:00;;;;;;;19.60;10.43;;;;;;;;;;2410963;55;21107;-75
2022/10/26 05:47:27;;;;;;;20.62;11.80;;;;;;;;;;2410321;55;21030;-75
2022/10/26 05:49:53;;;;;;;24.50;10.75;;;;;;;;;;2411017;55;21035;-75
2022/10/26 05:52:20;;;;;;;23.48;11.88;;;;;;;;;;2427506;51;21487;-73
2022/10/26 05:54:47;;;;;;;20.50;12.48;;;;;;;;;;2409198;55;21609;-73
2022/10/26 05:57:15;;;;;;;18.48;11.57;;;;;;;;;;2409512;55;21095;-75
2022/10/26 05:59:43;;;;;;;22.58;12.05;;;;;;;;;;2409332;55;21024;-75
2022/10/26 06:02:16;;;;;;;23.60;12.70;;;;;;;;;;2408425;55;21270;-75
2022/10/26 06:04:46;;;;;;;20.98;12.13;;;;;;;;;;2406980;55;21040;-75
2022/10/26 06:07:14;;;;;;;22.20;11.40;;;;;;;;;;2407656;55;21035;-75
2022/10/26 06:09:43;;;;;;;20.25;11.20;;;;;;;;;;2409592;55;21087;-75
2022/10/26 06:12:12;;;;;;;19.35;10.77;;;;;;;;;;2409665;55;21031;-75
2022/10/26 06:14:40;;;;;;;21.00;11.15;;;;;;;;;;2408537;55;21032;-75
2022/10/26 06:17:12;;;;;;;21.35;11.85;;;;;;;;;;2406752;55;21174;-76
2022/10/26 06:19:47;;;;;;;18.85;10.38;;;;;;;;;;2405780;55;21047;-75
2022/10/26 06:22:31;;;;;;;18.08;10.07;;;;;;;;;;2404868;55;21100;-75
2022/10/26 06:25:03;;;;;;;24.92;12.32;;;;;;;;;;2407592;55;21094;-75
2022/10/26 06:27:33;;;;;;;18.23;11.12;;;;;;;;;;2652685;51;21103;-76
2022/10/26 06:30:01;;;;;;;23.00;10.20;;;;;;;;;;2406801;55;21012;-76
2022/10/26 06:32:29;;;;;;;20.50;11.27;;;;;;;;;;2407543;55;21161;-80
2022/10/26 06:35:02;;;;;;;18.35;11.70;;;;;;;;;;2407697;55;21032;-80
2022/10/26 06:37:30;;;;;;;21.27;11.10;;;;;;;;;;2420918;51;21032;-80
2022/10/26 06:39:58;;;;;;;16.40;10.38;;;;;;;;;;2406348;55;21039;-80
2022/10/26 06:42:25;;;;;;;17.77;10.23;;;;;;;;;;2485195;51;21039;-80
2022/10/26 06:44:53;;;;;;;19.65;10.98;;;;;;;;;;2408735;55;21032;-80
2022/10/26 06:50:02;;;;;;;16.40;9.77;;;;;;;;;;2434504;53;22119;-79
2022/10/26 06:52:33;;;;;;;16.98;10.80;;;;;;;;;;2346281;57;21116;-81
2022/10/26 06:55:00;;;;;;;18.77;10.50;;;;;;;;;;2397340;53;21045;-81
2022/10/26 06:57:32;;;;;;;14.57;9.75;;;;;;;;;;2346420;57;21105;-81
2022/10/26 07:00:02;;;;;;;18.80;9.98;;;;;;;;;;2390496;52;21041;-79
2022/10/26 07:02:28;;;;;;;16.23;9.85;;;;;;;;;;2344689;57;21045;-79
2022/10/26 07:04:55;;;;;;;17.77;9.43;;;;;;;;;;2345984;57;21124;-79
2022/10/26 07:07:23;;;;;;;19.20;10.07;;;;;;;;;;2344904;57;21905;-77
2022/10/26 07:09:51;;;;;;;15.80;10.05;;;;;;;;;;2346718;57;21591;-79
2022/10/26 07:12:18;;;;;;;14.43;8.23;;;;;;;;;;2345564;57;21407;-78
2022/10/26 07:14:45;;;;;;;14.05;9.02;;;;;;;;;;2345819;57;21045;-77
2022/10/26 07:17:12;;;;;;;13.68;9.10;;;;;;;;;;2346633;57;21053;-77
2022/10/26 07:19:40;;;;;;;15.00;9.93;;;;;;;;;;2365966;53;22029;-79
2022/10/26 07:22:07;;;;;;;15.68;9.60;;;;;;;;;;2407087;53;21969;-79
2022/10/26 07:24:34;;;;;;;15.45;9.30;;;;;;;;;;2346424;57;21033;-79
2022/10/26 07:27:01;;;;;;;14.32;9.63;;;;;;;;;;2347111;57;21124;-79
2022/10/26 07:29:28;;;;;;;17.37;9.55;;;;;;;;;;2345127;57;21504;-79
2022/10/26 07:31:55;;;;;;;13.48;9.65;;;;;;;;;;2345681;57;21626;-77
2022/10/26 07:34:22;;;;;;;14.57;9.57;;;;;;;;;;2346019;57;21619;-79
2022/10/26 07:36:50;;;;;;;14.70;8.95;;;;;;;;;;2345625;57;21049;-77
2022/10/26 07:39:17;;;;;;;14.18;9.15;;;;;;;;;;2459913;52;21675;-79
2022/10/26 07:41:45;;;;;;;15.48;9.30;;;;;;;;;;2347208;57;21053;-80
2022/10/26 07:44:13;;;;;;;15.07;9.40;;;;;;;;;;2346384;57;21121;-79
2022/10/26 07:46:40;;;;;;;17.48;9.65;;;;;;;;;;2345198;57;21196;-80
2022/10/26 07:49:07;;;;;;;13.20;9.57;;;;;;;;;;2425458;53;21097;-77
2022/10/26 07:51:34;;;;;;;12.23;9.07;;;;;;;;;;2346091;57;21552;-79
2022/10/26 07:54:01;;;;;;;14.85;9.60;;;;;;;;;;2347006;57;21065;-78
2022/10/26 07:56:28;;;;;;;12.40;8.95;;;;;;;;;;2345196;57;21033;-77
2022/10/26 07:58:56;;;;;;;15.75;9.07;;;;;;;;;;2345657;57;21121;-77
2022/10/26 08:01:24;;;;;;;15.15;9.50;;;;;;;;;;2344842;57;21061;-79
2022/10/26 08:06:29;;;;;;;13.80;8.90;;;;;;;;;;2534646;54;22137;-77
2022/10/26 08:08:56;;;;;;;14.80;8.85;;;;;;;;;;2315980;58;21663;-79
2022/10/26 08:11:23;;;;;;;14.15;8.50;;;;;;;;;;2315181;58;21648;-77
2022/10/26 08:13:52;;;;;;;14.55;9.02;;;;;;;;;;2315510;58;21933;-78
2022/10/26 08:16:19;;;;;;;15.20;9.48;;;;;;;;;;2351014;53;21054;-75
2022/10/26 08:18:48;;;;;;;16.65;9.77;;;;;;;;;;2315912;58;21050;-76
2022/10/26 08:21:15;;;;;;;12.93;9.07;;;;;;;;;;2316525;58;21054;-75
2022/10/26 08:23:42;;;;;;;12.88;8.45;;;;;;;;;;2315380;58;21118;-76
2022/10/26 08:26:10;;;;;;;12.43;8.75;;;;;;;;;;2554882;53;21062;-73
2022/10/26 08:28:37;;;;;;;14.52;8.95;;;;;;;;;;2313898;58;21674;-75
2022/10/26 08:31:04;;;;;;;14.40;8.40;;;;;;;;;;2315781;58;21046;-75
2022/10/26 08:33:31;;;;;;;12.23;7.57;;;;;;;;;;2314863;58;21670;-73
2022/10/26 08:35:59;;;;;;;18.33;8.68;;;;;;;;;;2314256;58;21054;-73
2022/10/26 08:38:27;;;;;;;14.40;8.93;;;;;;;;;;2314812;58;21074;-75
2022/10/26 08:40:54;;;;;;;13.62;7.95;;;;;;;;;;2313418;58;21129;-75
2022/10/26 08:43:24;;;;;;;14.25;9.00;;;;;;;;;;2313530;58;21074;-76
2022/10/26 08:45:53;;;;;;;20.58;9.15;;;;;;;;;;2332933;54;21620;-75
2022/10/26 08:48:23;;;;;;;11.55;8.00;;;;;;;;;;2324912;54;21100;-75
2022/10/26 08:50:52;;;;;;;24.98;9.05;;;;;;;;;;2318029;58;21038;-75
2022/10/26 08:53:22;;;;;;;13.13;8.20;;;;;;;;;;2501609;54;21060;-73
2022/10/26 08:55:51;;;;;;;20.65;9.68;;;;;;;;;;2320781;58;21061;-74
2022/10/26 08:58:20;;;;;;;15.73;9.48;;;;;;;;;;2320438;58;21057;-73
2022/10/26 09:00:48;;;;;;;15.98;9.75;;;;;;;;;;2319664;58;21058;-73
2022/10/26 09:03:16;;;;;;;14.13;9.10;;;;;;;;;;2558449;53;21128;-74
2022/10/26 09:05:49;;;;;;;15.63;8.50;;;;;;;;;;2560401;54;21580;-73
2022/10/26 09:08:21;;;;;;;15.63;8.85;;;;;;;;;;2560302;53;21164;-74
2022/10/26 09:10:53;;;;;;;18.85;8.25;;;;;;;;;;2560939;54;21054;-73
2022/10/26 09:13:24;;;;;;;17.63;8.50;;;;;;;;;;2319725;58;21066;-74
2022/10/26 09:15:57;;;;;;;15.63;8.70;;;;;;;;;;2319058;58;21050;-73
2022/10/26 09:18:31;;;;;;;18.00;8.75;;;;;;;;;;2317731;58;21130;-73
2022/10/26 09:21:02;;;;;;;15.93;9.07;;;;;;;;;;2317221;58;21137;-74
2022/10/26 09:26:13;;;;;;;15.05;8.50;;;;;;;;;;2326707;57;22096;-73
2022/10/26 09:28:40;;;;;;;14.38;8.68;;;;;;;;;;2330379;57;21053;-74
2022/10/26 09:31:13;;;;;;;15.95;9.40;;;;;;;;;;2346215;57;21054;-74
2022/10/26 09:33:41;;;;;;;15.50;9.05;;;;;;;;;;2593626;53;22241;-74
2022/10/26 09:36:11;;;;;;;17.55;8.85;;;;;;;;;;2589002;53;21042;-73
2022/10/26 09:38:41;;;;;;;14.30;8.32;;;;;;;;;;2346338;57;21048;-73
2022/10/26 09:41:13;;;;;;;15.30;7.87;;;;;;;;;;2346083;57;21038;-73
2022/10/26 09:43:43;;;;;;;13.82;7.57;;;;;;;;;;2345507;57;21057;-73
2022/10/26 09:46:13;;;;;;;13.13;7.93;;;;;;;;;;2592792;53;21052;-73
2022/10/26 09:48:42;;;;;;;11.52;7.80;;;;;;;;;;2346055;57;21058;-73
2022/10/26 09:51:10;;;;;;;10.13;7.25;;;;;;;;;;2345179;57;21061;-73
2022/10/26 09:53:37;;;;;;;14.60;7.43;;;;;;;;;;2345086;57;21073;-74
2022/10/26 09:56:05;;;;;;;11.43;7.93;;;;;;;;;;2592475;53;21584;-73
2022/10/26 09:58:34;;;;;;;12.52;7.30;;;;;;;;;;2343992;57;21066;-73
2022/10/26 10:01:02;;;;;;;10.98;7.45;;;;;;;;;;2344573;57;21136;-73
2022/10/26 10:03:29;;;;;;;17.20;7.93;;;;;;;;;;2345355;57;21113;-74
2022/10/26 10:06:14;;;;;;;9.85;7.00;;;;;;;;;;2592331;53;21037;-73
2022/10/26 10:08:41;;;;;;;9.75;6.50;;;;;;;;;;2344611;57;21149;-74
2022/10/26 10:11:09;;;;;;;11.73;7.65;;;;;;;;;;2345537;57;21210;-73
2022/10/26 10:13:38;;;;;;;10.30;6.55;;;;;;;;;;2592356;53;21030;-73
2022/10/26 10:16:11;;;;;;;10.82;6.60;;;;;;;;;;2592159;53;21580;-73
2022/10/26 10:18:38;;;;;;;8.75;6.50;;;;;;;;;;2591773;53;21034;-73
2022/10/26 10:21:07;;;;;;;11.88;7.12;;;;;;;;;;2345210;57;21065;-74
2022/10/26 10:23:35;;;;;;;8.07;5.55;;;;;;;;;;2345740;57;21081;-73
2022/10/26 10:26:03;;;;;;;11.88;6.68;;;;;;;;;;2329971;57;21118;-73
2022/10/26 10:28:32;;;;;;;13.82;6.18;;;;;;;;;;2327189;57;21046;-74
2022/10/26 10:30:59;;;;;;;10.00;5.85;;;;;;;;;;2325230;57;21117;-74
2022/10/26 10:33:33;;;;;;;9.70;6.05;;;;;;;;;;2325188;57;21050;-79
2022/10/26 10:36:01;;;;;;;8.63;5.43;;;;;;;;;;2325499;57;21123;-78
2022/10/26 10:38:28;;;;;;;6.55;5.07;;;;;;;;;;2323891;58;21125;-80
2022/10/26 10:40:57;;;;;;;8.38;5.50;;;;;;;;;;2567387;54;21094;-80
2022/10/26 10:43:25;;;;;;;11.18;6.07;;;;;;;;;;2323441;58;21054;-78
2022/10/26 10:45:54;;;;;;;7.62;4.87;;;;;;;;;;2566272;54;21546;-79
2022/10/26 10:48:23;;;;;;;9.65;5.55;;;;;;;;;;2565976;54;21078;-79
2022/10/26 10:50:54;;;;;;;8.27;4.55;;;;;;;;;;2567068;54;21117;-80
2022/10/26 10:53:23;;;;;;;6.40;4.57;;;;;;;;;;2465872;53;73323;-78
2022/10/26 10:56:09;;;;;;;7.22;4.03;;;;;;;;;;2273262;59;21231;-79
2022/10/26 10:58:41;;;;;;;7.70;4.03;;;;;;;;;;2273172;59;21419;-79
2022/10/26 11:03:52;;;;;;;5.78;3.37;;;;;;;;;;2601051;52;22149;-79
2022/10/26 11:06:21;;;;;;;8.10;3.78;;;;;;;;;;2345263;57;21045;-79
2022/10/26 11:08:50;;;;;;;5.62;3.08;;;;;;;;;;2360535;56;21357;-79
2022/10/26 11:11:19;;;;;;;5.82;2.37;;;;;;;;;;2372302;56;21102;-79
2022/10/26 11:13:49;;;;;;;4.05;2.70;;;;;;;;;;2374567;56;21107;-80
2022/10/26 11:16:20;;;;;;;5.37;3.55;;;;;;;;;;2626523;52;21039;-79
2022/10/26 11:18:49;;;;;;;5.70;2.85;;;;;;;;;;2373901;56;21699;-79
2022/10/26 11:21:21;;;;;;;5.90;2.42;;;;;;;;;;2375468;56;21132;-79
2022/10/26 11:23:50;;;;;;;8.07;2.65;;;;;;;;;;2374880;56;21031;-79
2022/10/26 11:26:20;;;;;;;6.75;2.72;;;;;;;;;;2374925;56;21066;-80
2022/10/26 11:31:18;;;;;;;7.90;3.05;;;;;;;;;;2353811;57;21029;-79
2022/10/26 11:33:48;;;;;;;6.68;2.67;;;;;;;;;;2621771;52;21074;-77
2022/10/26 11:36:17;;;;;;;3.65;2.70;;;;;;;;;;2638900;52;21577;-78
2022/10/26 11:38:47;;;;;;;5.47;2.20;;;;;;;;;;2624392;52;21020;-83
2022/10/26 11:41:19;;;;;;;7.00;2.45;;;;;;;;;;2607661;53;21020;-78
2022/10/26 11:43:47;;;;;;;8.73;2.92;;;;;;;;;;2605257;53;21024;-80
2022/10/26 11:46:16;;;;;;;8.40;3.10;;;;;;;;;;2607211;53;21146;-80
2022/10/26 11:48:45;;;;;;;3.42;2.50;;;;;;;;;;2356819;57;21024;-80
2022/10/26 11:51:16;;;;;;;4.15;2.35;;;;;;;;;;2607832;53;21524;-80
2022/10/26 11:53:44;;;;;;;5.93;2.60;;;;;;;;;;2357400;57;21025;-81
2022/10/26 11:56:13;;;;;;;3.65;2.30;;;;;;;;;;2607548;53;21043;-80
2022/10/26 11:58:41;;;;;;;4.72;3.12;;;;;;;;;;2355370;57;21079;-77
2022/10/26 12:01:09;;;;;;;7.12;2.95;;;;;;;;;;2354460;57;21043;-81
2022/10/26 12:03:41;;;;;;;5.62;2.40;;;;;;;;;;2356330;57;21040;-78
2022/10/26 12:06:08;;;;;;;6.18;2.72;;;;;;;;;;2606568;53;21636;-81
2022/10/26 12:08:37;;;;;;;4.93;2.83;;;;;;;;;;2607462;52;21040;-79
2022/10/26 12:11:07;;;;;;;7.30;2.67;;;;;;;;;;2458678;52;71081;-79
2022/10/26 12:13:38;;;;;;;6.68;2.53;;;;;;;;;;2357628;56;21025;-79
2022/10/26 12:16:09;;;;;;;5.03;2.55;;;;;;;;;;2604761;53;21029;-78
2022/10/26 12:18:42;;;;;;;4.40;2.45;;;;;;;;;;2355049;57;21024;-77
2022/10/26 12:21:10;;;;;;;5.95;2.75;;;;;;;;;;2606599;53;21120;-80
2022/10/26 12:24:34;;;;;;;4.03;2.50;;;18.20;72.60;;;;;;2388979;53;24352;-52
2022/10/26 12:27:03;;;;;;;4.47;2.40;;;17.70;73.80;;;;;;2358311;56;21162;-53
2022/10/26 12:29:37;;;;;;;2.78;2.10;;;17.70;74.20;;;;;;2375089;56;21019;-53
2022/10/26 12:32:24;;;;;;;9.25;2.95;;;17.80;73.90;;;;;;2626524;52;21119;-53
2022/10/26 12:35:03;;;;;;;4.43;2.25;;;17.80;73.70;;;;;;2372627;56;21026;-53
2022/10/26 12:40:42;;;;;;;4.07;2.20;;;17.90;73.40;;;;;;2323142;58;22458;-54
2022/10/26 12:43:35;;;;;;;5.62;2.20;;;18.10;73.00;;;;;;2317981;58;21028;-54
2022/10/26 12:46:46;;;;;;;4.60;2.10;;;18.10;72.40;;;;;;2317947;57;21032;-55
2022/10/26 12:50:03;;;;;;;3.05;1.80;;;18.20;72.40;;;;;;2340635;57;21045;-54
2022/10/26 12:52:49;;;;;;;5.50;1.77;;;18.20;72.40;;;;;;2344735;57;21173;-54
2022/10/26 12:55:41;;;;;;;5.65;1.95;;;18.30;72.30;;;;;;2345014;57;21592;-54
2022/10/26 12:58:39;;;;;;;2.87;1.73;;;18.30;71.30;;;;;;2343167;57;21121;-54
2022/10/26 13:01:22;;;;;;;3.55;2.20;;;18.40;71.20;;;;;;2341800;57;21109;-55
2022/10/26 13:04:03;;;;;;;2.85;1.70;;;18.50;71.30;;;;;;2377739;54;21087;-51
2022/10/26 13:08:55;;;;;;;4.37;1.85;;;18.50;70.00;;;;;;2600888;53;25583;-52
2022/10/26 13:11:30;;;;;;;7.10;2.42;;;18.60;70.20;;;;;;2345301;57;21128;-55
2022/10/26 13:14:00;;;;;;;4.80;2.37;;;18.70;69.70;;;;;;2592865;53;21506;-53
2022/10/26 13:16:29;;;;;;;4.03;2.28;;;18.60;69.50;;;;;;2624122;52;21027;-54
2022/10/26 13:18:58;;;;;;;3.80;1.95;;;18.70;69.60;;;;;;2374126;56;21459;-55
2022/10/26 13:21:27;;;;;;;4.15;1.83;;;18.80;69.40;;;;;;2373009;56;21502;-54
2022/10/26 13:27:20;;;;;;;4.10;2.25;;;18.90;69.10;;;;;;2328961;57;22527;-55
2022/10/26 13:30:35;;;;;;;8.73;2.10;;;19.00;68.60;;;;;;2345899;57;21042;-52
2022/10/26 13:33:07;;;;;;;5.95;2.15;;;19.00;68.10;;;;;;2346448;57;21049;-54
2022/10/26 13:35:38;;;;;;;5.93;1.90;;;19.00;68.20;;;;;;2593862;52;21026;-55
2022/10/26 13:38:10;;;;;;;5.15;2.10;;;19.00;68.30;;;;;;2345843;57;21029;-54
2022/10/26 13:40:39;;;;;;;3.70;1.83;;;19.00;68.40;;;;;;2347674;57;21054;-55
2022/10/26 13:43:12;;;;;;;3.50;1.80;;;19.10;68.40;;;;;;2346802;57;21045;-54
2022/10/26 13:48:23;;;;;;;4.82;1.90;;;19.10;68.20;;;;;;2326576;57;20130;-54
2022/10/26 13:50:53;;;;;;;2.72;1.62;;;19.20;68.00;;;;;;2347132;57;21026;-60
2022/10/26 13:53:24;;;;;;;4.05;2.05;;;19.20;68.10;;;;;;2347514;57;21093;-60
2022/10/26 13:55:54;;;;;;;5.20;1.87;;;19.20;68.00;;;;;;2344007;57;21056;-60
2022/10/26 13:58:28;;;;;;;6.87;2.40;;;19.20;67.30;;;;;;2345358;57;21079;-60
2022/10/26 14:01:14;;;;;;;5.15;2.15;;;19.20;66.60;;;;;;2344219;57;21029;-59
2022/10/26 14:03:42;;;;;;;5.18;2.35;;;19.10;67.10;;;;;;2344082;57;21124;-60
2022/10/26 14:06:17;;;;;;;3.62;1.85;;;19.10;67.20;;;;;;2345139;57;21560;-60
2022/10/26 14:11:26;;;;;;;3.12;2.30;;;19.10;67.00;;;;;;2327464;57;23524;-59
2022/10/26 14:16:32;;;;;;;3.10;2.05;;;19.10;67.50;;;;;;2354525;57;22123;-59
2022/10/26 14:18:59;;;;;;;5.60;1.90;;;19.10;67.60;;;;;;2345950;57;21498;-59
2022/10/26 14:21:27;;;;;;;4.82;2.03;;;19.10;67.20;;;;;;2346453;57;21095;-60
2022/10/26 14:23:56;;;;;;;7.45;2.40;;;19.10;67.30;;;;;;2592423;53;21050;-59
2022/10/26 14:26:27;;;;;;;7.55;2.03;;;19.10;67.50;;;;;;2347392;57;21124;-59
2022/10/26 14:28:56;;;;;;;6.25;1.90;;;19.00;67.40;;;;;;2345811;57;21597;-59
2022/10/26 14:34:04;;;;;;;5.37;2.47;;;19.10;67.80;;;;;;2326518;57;22059;-60
2022/10/26 14:36:39;;;;;;;4.28;2.28;;;19.00;67.80;;;;;;2343508;57;21057;-60
2022/10/26 14:39:12;;;;;;;5.93;1.87;;;19.00;67.80;;;;;;2346101;57;21042;-60
2022/10/26 14:44:18;;;;;;;4.57;2.10;;;19.00;68.10;;;;;;2336960;56;27799;-60
2022/10/26 14:46:46;;;;;;;2.08;1.70;;;19.00;69.60;;;;;;2374208;56;21101;-59
2022/10/26 14:49:18;;;;;;;4.78;1.85;;;19.00;69.40;;;;;;2374875;56;21185;-59
2022/10/26 14:51:46;;;;;;;4.72;1.90;;;19.10;69.30;;;;;;2627832;52;21089;-60
2022/10/26 14:54:21;;;;;;;3.03;1.92;;;19.10;69.00;;;;;;2374464;56;21051;-59
2022/10/26 14:56:49;;;;;;;4.45;1.92;;;19.10;68.80;;;;;;2376453;56;21090;-60
2022/10/26 14:59:24;;;;;;;4.47;1.85;;;19.00;68.60;;;;;;2375009;56;21039;-59
2022/10/26 15:01:54;;;;;;;4.47;2.10;;;19.00;68.60;;;;;;2374210;56;21074;-59
2022/10/26 15:04:31;;;;;;;2.55;1.85;;;19.00;68.60;;;;;;2629612;52;21016;-60
2022/10/26 15:07:07;;;;;;;4.55;2.05;;;19.00;68.70;;;;;;2376377;56;21094;-60